sensor_id;sensor_type;location;lat;lon;timestamp;pressure;altitude;pressure_sealevel;temperature;humidity
61898;BME280;47850;50.274;18.908;2022-09-17T00:01:01;97147.56;;;8.39;98.41
61898;BME280;47850;50.274;18.908;2022-09-17T00:03:27;97144.61;;;8.37;98.28
61898;BME280;47850;50.274;18.908;2022-09-17T00:08:26;97142.08;;;8.34;98.76
61898;BME280;47850;50.274;18.908;2022-09-17T00:10:52;97144.83;;;8.33;98.93
61898;BME280;47850;50.274;18.908;2022-09-17T00:13:18;97146.95;;;8.31;98.97
61898;BME280;47850;50.274;18.908;2022-09-17T00:15:45;97146.54;;;8.30;99.18
61898;BME280;47850;50.274;18.908;2022-09-17T00:18:13;97152.67;;;8.29;99.33
61898;BME280;47850;50.274;18.908;2022-09-17T00:20:40;97150.06;;;8.27;99.23
61898;BME280;47850;50.274;18.908;2022-09-17T00:23:07;97150.53;;;8.26;99.39
61898;BME280;47850;50.274;18.908;2022-09-17T00:25:37;97148.07;;;8.24;99.30
61898;BME280;47850;50.274;18.908;2022-09-17T00:28:03;97147.06;;;8.22;99.32
61898;BME280;47850;50.274;18.908;2022-09-17T00:30:29;97145.48;;;8.20;99.24
61898;BME280;47850;50.274;18.908;2022-09-17T00:32:55;97143.14;;;8.17;99.15
61898;BME280;47850;50.274;18.908;2022-09-17T00:35:23;97140.54;;;8.13;99.24
61898;BME280;47850;50.274;18.908;2022-09-17T00:37:50;97138.35;;;8.11;99.21
61898;BME280;47850;50.274;18.908;2022-09-17T00:40:17;97138.64;;;8.09;99.25
61898;BME280;47850;50.274;18.908;2022-09-17T00:42:43;97136.52;;;8.08;99.32
61898;BME280;47850;50.274;18.908;2022-09-17T00:45:10;97138.98;;;8.08;99.29
61898;BME280;47850;50.274;18.908;2022-09-17T00:47:46;97141.98;;;8.09;99.36
61898;BME280;47850;50.274;18.908;2022-09-17T00:50:22;97142.45;;;8.09;99.18
61898;BME280;47850;50.274;18.908;2022-09-17T00:52:55;97144.94;;;8.09;98.98
61898;BME280;47850;50.274;18.908;2022-09-17T00:55:31;97138.96;;;8.09;98.83
61898;BME280;47850;50.274;18.908;2022-09-17T00:58:00;97137.30;;;8.08;98.74
61898;BME280;47850;50.274;18.908;2022-09-17T01:00:28;97142.68;;;8.07;98.63
61898;BME280;47850;50.274;18.908;2022-09-17T01:02:55;97139.73;;;8.05;98.52
61898;BME280;47850;50.274;18.908;2022-09-17T01:05:32;97142.16;;;8.03;98.53
61898;BME280;47850;50.274;18.908;2022-09-17T01:13:37;97135.95;;;7.95;98.51
61898;BME280;47850;50.274;18.908;2022-09-17T01:16:14;97131.74;;;7.91;98.55
61898;BME280;47850;50.274;18.908;2022-09-17T01:19:41;97135.46;;;7.87;98.80
61898;BME280;47850;50.274;18.908;2022-09-17T01:22:11;97135.96;;;7.82;99.04
61898;BME280;47850;50.274;18.908;2022-09-17T01:33:14;97134.82;;;7.67;99.34
61898;BME280;47850;50.274;18.908;2022-09-17T01:36:02;97129.25;;;7.63;99.39
61898;BME280;47850;50.274;18.908;2022-09-17T01:38:34;97130.70;;;7.61;99.43
61898;BME280;47850;50.274;18.908;2022-09-17T01:41:11;97129.73;;;7.59;99.44
61898;BME280;47850;50.274;18.908;2022-09-17T01:44:06;97128.03;;;7.58;99.77
61898;BME280;47850;50.274;18.908;2022-09-17T01:46:49;97127.95;;;7.58;99.97
61898;BME280;47850;50.274;18.908;2022-09-17T01:49:17;97127.89;;;7.59;100.00
61898;BME280;47850;50.274;18.908;2022-09-17T01:51:47;97130.41;;;7.60;99.99
61898;BME280;47850;50.274;18.908;2022-09-17T01:54:39;97127.44;;;7.59;100.00
61898;BME280;47850;50.274;18.908;2022-09-17T01:57:24;97125.55;;;7.59;99.98
61898;BME280;47850;50.274;18.908;2022-09-17T02:00:00;97123.11;;;7.57;100.00
61898;BME280;47850;50.274;18.908;2022-09-17T02:02:34;97124.74;;;7.57;100.00
61898;BME280;47850;50.274;18.908;2022-09-17T02:05:15;97124.75;;;7.57;100.00
61898;BME280;47850;50.274;18.908;2022-09-17T02:10:43;97128.73;;;7.57;100.00
61898;BME280;47850;50.274;18.908;2022-09-17T02:13:23;97130.98;;;7.54;100.00
61898;BME280;47850;50.274;18.908;2022-09-17T02:15:56;97132.16;;;7.53;100.00
61898;BME280;47850;50.274;18.908;2022-09-17T02:21:06;97133.31;;;7.51;100.00
61898;BME280;47850;50.274;18.908;2022-09-17T02:23:35;97135.30;;;7.50;100.00
61898;BME280;47850;50.274;18.908;2022-09-17T02:26:09;97136.04;;;7.49;100.00
61898;BME280;47850;50.274;18.908;2022-09-17T02:28:47;97138.91;;;7.49;100.00
61898;BME280;47850;50.274;18.908;2022-09-17T02:31:14;97139.23;;;7.49;100.00
61898;BME280;47850;50.274;18.908;2022-09-17T02:33:43;97140.67;;;7.50;100.00
61898;BME280;47850;50.274;18.908;2022-09-17T02:36:11;97137.27;;;7.51;100.00
61898;BME280;47850;50.274;18.908;2022-09-17T02:38:40;97138.48;;;7.52;100.00
61898;BME280;47850;50.274;18.908;2022-09-17T02:48:56;97136.55;;;7.50;100.00
61898;BME280;47850;50.274;18.908;2022-09-17T02:54:27;97133.33;;;7.45;100.00
61898;BME280;47850;50.274;18.908;2022-09-17T02:57:16;97132.04;;;7.42;100.00
61898;BME280;47850;50.274;18.908;2022-09-17T03:00:00;97134.51;;;7.38;100.00
61898;BME280;47850;50.274;18.908;2022-09-17T03:02:39;97134.36;;;7.35;100.00
61898;BME280;47850;50.274;18.908;2022-09-17T03:05:08;97131.52;;;7.32;100.00
61898;BME280;47850;50.274;18.908;2022-09-17T03:07:36;97129.04;;;7.28;100.00
61898;BME280;47850;50.274;18.908;2022-09-17T03:10:03;97128.73;;;7.26;100.00
61898;BME280;47850;50.274;18.908;2022-09-17T03:12:29;97124.75;;;7.24;100.00
61898;BME280;47850;50.274;18.908;2022-09-17T03:14:54;97125.42;;;7.21;100.00
61898;BME280;47850;50.274;18.908;2022-09-17T03:17:20;97123.73;;;7.18;100.00
61898;BME280;47850;50.274;18.908;2022-09-17T03:19:46;97127.06;;;7.14;100.00
61898;BME280;47850;50.274;18.908;2022-09-17T03:22:12;97128.01;;;7.11;100.00
61898;BME280;47850;50.274;18.908;2022-09-17T03:24:38;97132.25;;;7.05;100.00
61898;BME280;47850;50.274;18.908;2022-09-17T03:27:04;97130.89;;;7.02;100.00
61898;BME280;47850;50.274;18.908;2022-09-17T03:29:30;97124.29;;;6.98;100.00
61898;BME280;47850;50.274;18.908;2022-09-17T03:31:56;97124.55;;;6.95;100.00
61898;BME280;47850;50.274;18.908;2022-09-17T03:34:21;97120.34;;;6.93;100.00
61898;BME280;47850;50.274;18.908;2022-09-17T03:36:48;97116.14;;;6.90;100.00
61898;BME280;47850;50.274;18.908;2022-09-17T03:39:14;97110.59;;;6.87;100.00
61898;BME280;47850;50.274;18.908;2022-09-17T03:41:40;97109.95;;;6.85;100.00
61898;BME280;47850;50.274;18.908;2022-09-17T03:44:05;97106.36;;;6.84;100.00
61898;BME280;47850;50.274;18.908;2022-09-17T03:46:31;97107.06;;;6.84;100.00
61898;BME280;47850;50.274;18.908;2022-09-17T03:48:57;97105.52;;;6.84;100.00
61898;BME280;47850;50.274;18.908;2022-09-17T03:51:23;97101.38;;;6.85;100.00
61898;BME280;47850;50.274;18.908;2022-09-17T03:53:49;97096.66;;;6.85;100.00
61898;BME280;47850;50.274;18.908;2022-09-17T03:56:14;97096.04;;;6.85;100.00
61898;BME280;47850;50.274;18.908;2022-09-17T03:58:42;97099.88;;;6.86;100.00
61898;BME280;47850;50.274;18.908;2022-09-17T04:01:07;97099.52;;;6.90;100.00
61898;BME280;47850;50.274;18.908;2022-09-17T04:03:33;97093.36;;;6.91;100.00
61898;BME280;47850;50.274;18.908;2022-09-17T04:05:59;97089.77;;;6.91;100.00
61898;BME280;47850;50.274;18.908;2022-09-17T04:08:25;97088.11;;;6.91;100.00
61898;BME280;47850;50.274;18.908;2022-09-17T04:10:51;97086.64;;;6.89;100.00
61898;BME280;47850;50.274;18.908;2022-09-17T04:13:17;97088.07;;;6.90;100.00
61898;BME280;47850;50.274;18.908;2022-09-17T04:15:44;97086.70;;;6.90;100.00
61898;BME280;47850;50.274;18.908;2022-09-17T04:18:10;97088.95;;;6.92;100.00
61898;BME280;47850;50.274;18.908;2022-09-17T04:20:36;97091.23;;;6.91;100.00
61898;BME280;47850;50.274;18.908;2022-09-17T04:23:03;97092.00;;;6.89;100.00
61898;BME280;47850;50.274;18.908;2022-09-17T04:25:28;97090.36;;;6.89;100.00
61898;BME280;47850;50.274;18.908;2022-09-17T04:27:54;97089.61;;;6.91;100.00
61898;BME280;47850;50.274;18.908;2022-09-17T04:30:20;97089.54;;;6.93;100.00
61898;BME280;47850;50.274;18.908;2022-09-17T04:32:46;97084.37;;;6.95;100.00
61898;BME280;47850;50.274;18.908;2022-09-17T04:35:12;97079.46;;;6.96;100.00
61898;BME280;47850;50.274;18.908;2022-09-17T04:37:38;97078.41;;;6.95;100.00
61898;BME280;47850;50.274;18.908;2022-09-17T04:40:05;97079.88;;;6.95;100.00
61898;BME280;47850;50.274;18.908;2022-09-17T04:42:31;97078.79;;;6.97;100.00
61898;BME280;47850;50.274;18.908;2022-09-17T04:44:57;97080.27;;;6.99;100.00
61898;BME280;47850;50.274;18.908;2022-09-17T04:47:23;97076.83;;;7.02;100.00
61898;BME280;47850;50.274;18.908;2022-09-17T04:49:49;97078.99;;;7.06;100.00
61898;BME280;47850;50.274;18.908;2022-09-17T04:52:15;97075.80;;;7.09;100.00
61898;BME280;47850;50.274;18.908;2022-09-17T04:54:40;97079.74;;;7.12;100.00
61898;BME280;47850;50.274;18.908;2022-09-17T04:57:06;97080.59;;;7.16;100.00
61898;BME280;47850;50.274;18.908;2022-09-17T04:59:32;97070.46;;;7.20;100.00
61898;BME280;47850;50.274;18.908;2022-09-17T05:01:58;97072.91;;;7.25;100.00
61898;BME280;47850;50.274;18.908;2022-09-17T05:04:24;97081.47;;;7.31;100.00
61898;BME280;47850;50.274;18.908;2022-09-17T05:06:50;97095.16;;;7.39;100.00
61898;BME280;47850;50.274;18.908;2022-09-17T05:09:16;97097.39;;;7.46;100.00
61898;BME280;47850;50.274;18.908;2022-09-17T05:11:42;97093.36;;;7.52;100.00
61898;BME280;47850;50.274;18.908;2022-09-17T05:14:08;97098.80;;;7.58;100.00
61898;BME280;47850;50.274;18.908;2022-09-17T05:16:33;97106.36;;;7.63;100.00
61898;BME280;47850;50.274;18.908;2022-09-17T05:19:00;97106.34;;;7.68;100.00
61898;BME280;47850;50.274;18.908;2022-09-17T05:21:25;97102.88;;;7.73;100.00
61898;BME280;47850;50.274;18.908;2022-09-17T05:23:51;97102.67;;;7.75;100.00
61898;BME280;47850;50.274;18.908;2022-09-17T05:26:17;97109.27;;;7.77;99.98
61898;BME280;47850;50.274;18.908;2022-09-17T05:28:43;97114.02;;;7.80;99.90
61898;BME280;47850;50.274;18.908;2022-09-17T05:31:08;97112.69;;;7.81;99.59
61898;BME280;47850;50.274;18.908;2022-09-17T05:33:34;97104.83;;;7.85;99.47
61898;BME280;47850;50.274;18.908;2022-09-17T05:36:00;97104.41;;;7.89;99.35
61898;BME280;47850;50.274;18.908;2022-09-17T05:38:26;97108.69;;;7.95;99.30
61898;BME280;47850;50.274;18.908;2022-09-17T05:40:52;97105.41;;;8.00;99.08
61898;BME280;47850;50.274;18.908;2022-09-17T05:43:18;97108.02;;;8.07;98.96
61898;BME280;47850;50.274;18.908;2022-09-17T05:45:44;97099.34;;;8.16;98.80
61898;BME280;47850;50.274;18.908;2022-09-17T05:48:14;97097.86;;;8.22;98.37
61898;BME280;47850;50.274;18.908;2022-09-17T05:50:40;97103.01;;;8.29;98.34
61898;BME280;47850;50.274;18.908;2022-09-17T05:53:09;97109.84;;;8.37;98.17
61898;BME280;47850;50.274;18.908;2022-09-17T05:55:36;97115.15;;;8.46;97.88
61898;BME280;47850;50.274;18.908;2022-09-17T05:58:10;97116.20;;;8.55;97.68
61898;BME280;47850;50.274;18.908;2022-09-17T06:00:36;97120.14;;;8.61;97.26
61898;BME280;47850;50.274;18.908;2022-09-17T06:03:02;97117.27;;;8.65;97.11
61898;BME280;47850;50.274;18.908;2022-09-17T06:05:27;97113.70;;;8.72;96.94
61898;BME280;47850;50.274;18.908;2022-09-17T06:07:53;97110.66;;;8.78;96.69
61898;BME280;47850;50.274;18.908;2022-09-17T06:10:19;97102.30;;;8.84;96.68
61898;BME280;47850;50.274;18.908;2022-09-17T06:12:44;97104.95;;;8.93;96.54
61898;BME280;47850;50.274;18.908;2022-09-17T06:15:10;97103.08;;;8.99;96.09
61898;BME280;47850;50.274;18.908;2022-09-17T06:17:39;97090.20;;;9.06;95.90
61898;BME280;47850;50.274;18.908;2022-09-17T06:20:05;97073.86;;;9.13;95.67
61898;BME280;47850;50.274;18.908;2022-09-17T06:22:32;97067.34;;;9.17;95.28
61898;BME280;47850;50.274;18.908;2022-09-17T06:24:58;97071.84;;;9.24;95.19
61898;BME280;47850;50.274;18.908;2022-09-17T06:27:32;97080.02;;;9.32;95.24
61898;BME280;47850;50.274;18.908;2022-09-17T06:29:59;97086.32;;;9.41;95.14
61898;BME280;47850;50.274;18.908;2022-09-17T06:32:26;97102.64;;;9.50;94.92
61898;BME280;47850;50.274;18.908;2022-09-17T06:34:52;97112.67;;;9.58;94.76
61898;BME280;47850;50.274;18.908;2022-09-17T06:37:18;97105.61;;;9.66;94.37
61898;BME280;47850;50.274;18.908;2022-09-17T06:39:44;97105.41;;;9.74;93.91
61898;BME280;47850;50.274;18.908;2022-09-17T06:42:10;97109.23;;;9.77;93.22
61898;BME280;47850;50.274;18.908;2022-09-17T06:44:37;97117.40;;;9.80;93.22
61898;BME280;47850;50.274;18.908;2022-09-17T06:47:03;97124.40;;;9.82;93.07
61898;BME280;47850;50.274;18.908;2022-09-17T06:49:28;97120.01;;;9.88;93.28
61898;BME280;47850;50.274;18.908;2022-09-17T06:51:55;97126.80;;;9.98;93.14
61898;BME280;47850;50.274;18.908;2022-09-17T06:54:21;97124.20;;;10.07;92.69
61898;BME280;47850;50.274;18.908;2022-09-17T06:56:47;97128.14;;;10.14;92.56
61898;BME280;47850;50.274;18.908;2022-09-17T06:59:13;97130.27;;;10.18;91.56
61898;BME280;47850;50.274;18.908;2022-09-17T07:01:38;97120.34;;;10.18;91.45
61898;BME280;47850;50.274;18.908;2022-09-17T07:04:04;97128.75;;;10.19;91.05
61898;BME280;47850;50.274;18.908;2022-09-17T07:06:30;97128.05;;;10.19;90.97
61898;BME280;47850;50.274;18.908;2022-09-17T07:08:57;97128.15;;;10.28;91.04
61898;BME280;47850;50.274;18.908;2022-09-17T07:11:23;97129.11;;;10.38;90.81
61898;BME280;47850;50.274;18.908;2022-09-17T07:13:49;97126.14;;;10.48;90.39
61898;BME280;47850;50.274;18.908;2022-09-17T07:16:15;97121.70;;;10.56;89.97
61898;BME280;47850;50.274;18.908;2022-09-17T07:18:40;97123.08;;;10.60;89.79
61898;BME280;47850;50.274;18.908;2022-09-17T07:21:09;97128.16;;;10.66;88.65
61898;BME280;47850;50.274;18.908;2022-09-17T07:23:36;97125.65;;;10.71;88.28
61898;BME280;47850;50.274;18.908;2022-09-17T07:26:12;97133.54;;;10.80;88.05
61898;BME280;47850;50.274;18.908;2022-09-17T07:28:39;97133.23;;;10.97;87.71
61898;BME280;47850;50.274;18.908;2022-09-17T07:31:05;97138.92;;;11.09;86.83
61898;BME280;47850;50.274;18.908;2022-09-17T07:33:33;97145.04;;;11.19;85.96
61898;BME280;47850;50.274;18.908;2022-09-17T07:36:05;97153.69;;;11.27;86.12
61898;BME280;47850;50.274;18.908;2022-09-17T07:38:32;97154.94;;;11.37;85.87
61898;BME280;47850;50.274;18.908;2022-09-17T07:41:18;97146.69;;;11.43;84.42
61898;BME280;47850;50.274;18.908;2022-09-17T07:43:44;97141.65;;;11.53;84.67
61898;BME280;47850;50.274;18.908;2022-09-17T07:46:17;97144.17;;;11.64;84.50
61898;BME280;47850;50.274;18.908;2022-09-17T07:48:44;97146.50;;;11.70;82.93
61898;BME280;47850;50.274;18.908;2022-09-17T07:51:22;97152.79;;;11.72;81.98
61898;BME280;47850;50.274;18.908;2022-09-17T07:53:57;97157.33;;;11.69;81.97
61898;BME280;47850;50.274;18.908;2022-09-17T07:56:24;97150.70;;;11.75;82.08
61898;BME280;47850;50.274;18.908;2022-09-17T07:58:51;97147.21;;;11.89;82.02
61898;BME280;47850;50.274;18.908;2022-09-17T08:01:18;97146.19;;;12.07;81.13
61898;BME280;47850;50.274;18.908;2022-09-17T08:03:52;97133.52;;;12.27;80.01
61898;BME280;47850;50.274;18.908;2022-09-17T08:06:21;97129.94;;;12.48;78.50
61898;BME280;47850;50.274;18.908;2022-09-17T08:08:48;97135.49;;;12.71;77.58
61898;BME280;47850;50.274;18.908;2022-09-17T08:11:16;97130.07;;;12.81;73.42
61898;BME280;47850;50.274;18.908;2022-09-17T08:13:46;97127.15;;;12.91;72.94
61898;BME280;47850;50.274;18.908;2022-09-17T08:16:12;97127.41;;;13.01;72.26
61898;BME280;47850;50.274;18.908;2022-09-17T08:18:39;97135.73;;;13.02;69.29
61898;BME280;47850;50.274;18.908;2022-09-17T08:21:06;97130.66;;;12.95;69.11
61898;BME280;47850;50.274;18.908;2022-09-17T08:23:36;97129.42;;;12.80;67.48
61898;BME280;47850;50.274;18.908;2022-09-17T08:26:04;97133.05;;;12.74;70.09
61898;BME280;47850;50.274;18.908;2022-09-17T08:28:33;97131.80;;;12.81;69.27
61898;BME280;47850;50.274;18.908;2022-09-17T08:31:02;97130.48;;;12.93;68.91
61898;BME280;47850;50.274;18.908;2022-09-17T08:33:35;97133.63;;;13.11;68.61
61898;BME280;47850;50.274;18.908;2022-09-17T08:36:02;97136.66;;;13.26;69.38
61898;BME280;47850;50.274;18.908;2022-09-17T08:38:30;97133.36;;;13.35;68.24
61898;BME280;47850;50.274;18.908;2022-09-17T08:43:33;97140.10;;;13.10;68.15
61898;BME280;47850;50.274;18.908;2022-09-17T08:46:01;97142.52;;;12.97;68.20
61898;BME280;47850;50.274;18.908;2022-09-17T08:48:33;97139.95;;;12.82;67.32
61898;BME280;47850;50.274;18.908;2022-09-17T08:51:59;97132.08;;;12.72;68.50
61898;BME280;47850;50.274;18.908;2022-09-17T08:54:17;97116.77;;;12.70;68.85
61898;BME280;47850;50.274;18.908;2022-09-17T08:57:10;97106.11;;;12.79;69.09
61898;BME280;47850;50.274;18.908;2022-09-17T08:59:42;97108.34;;;12.93;68.54
61898;BME280;47850;50.274;18.908;2022-09-17T09:02:35;97111.50;;;13.11;69.22
61898;BME280;47850;50.274;18.908;2022-09-17T09:05:14;97119.48;;;13.19;68.53
61898;BME280;47850;50.274;18.908;2022-09-17T09:07:46;97132.69;;;13.15;68.73
61898;BME280;47850;50.274;18.908;2022-09-17T09:10:26;97125.34;;;13.15;68.12
61898;BME280;47850;50.274;18.908;2022-09-17T09:12:54;97129.14;;;13.09;67.21
61898;BME280;47850;50.274;18.908;2022-09-17T09:15:42;97136.39;;;13.04;67.20
61898;BME280;47850;50.274;18.908;2022-09-17T09:18:17;97138.31;;;13.03;68.40
61898;BME280;47850;50.274;18.908;2022-09-17T09:26:19;97137.00;;;13.07;68.77
61898;BME280;47850;50.274;18.908;2022-09-17T09:33:56;97147.49;;;13.29;69.18
61898;BME280;47850;50.274;18.908;2022-09-17T09:36:27;97155.11;;;13.26;68.56
61898;BME280;47850;50.274;18.908;2022-09-17T09:39:14;97158.92;;;13.21;68.73
61898;BME280;47850;50.274;18.908;2022-09-17T09:41:50;97154.13;;;13.20;69.02
61898;BME280;47850;50.274;18.908;2022-09-17T09:44:19;97149.45;;;13.16;69.21
61898;BME280;47850;50.274;18.908;2022-09-17T09:49:29;97152.31;;;13.06;69.87
61898;BME280;47850;50.274;18.908;2022-09-17T10:00:49;97156.44;;;13.34;69.38
61898;BME280;47850;50.274;18.908;2022-09-17T10:03:26;97156.13;;;13.45;69.02
61898;BME280;47850;50.274;18.908;2022-09-17T10:05:58;97158.45;;;13.49;68.45
61898;BME280;47850;50.274;18.908;2022-09-17T10:08:27;97159.92;;;13.43;68.18
61898;BME280;47850;50.274;18.908;2022-09-17T10:10:54;97161.11;;;13.33;68.80
61898;BME280;47850;50.274;18.908;2022-09-17T10:13:21;97158.65;;;13.32;68.71
61898;BME280;47850;50.274;18.908;2022-09-17T10:15:47;97159.10;;;13.26;68.75
61898;BME280;47850;50.274;18.908;2022-09-17T10:18:17;97158.41;;;13.18;68.63
61898;BME280;47850;50.274;18.908;2022-09-17T10:20:54;97167.27;;;13.08;68.70
61898;BME280;47850;50.274;18.908;2022-09-17T10:23:22;97170.81;;;12.97;69.12
61898;BME280;47850;50.274;18.908;2022-09-17T10:25:49;97170.29;;;12.99;69.41
61898;BME280;47850;50.274;18.908;2022-09-17T10:31:03;97170.98;;;13.09;68.82
61898;BME280;47850;50.274;18.908;2022-09-17T10:33:33;97169.33;;;13.09;69.03
61898;BME280;47850;50.274;18.908;2022-09-17T10:36:11;97170.46;;;13.07;68.89
61898;BME280;47850;50.274;18.908;2022-09-17T10:38:40;97168.10;;;13.03;68.89
61898;BME280;47850;50.274;18.908;2022-09-17T10:41:20;97161.48;;;12.96;69.21
61898;BME280;47850;50.274;18.908;2022-09-17T10:43:47;97159.92;;;12.85;69.56
61898;BME280;47850;50.274;18.908;2022-09-17T10:46:33;97166.50;;;12.74;70.20
61898;BME280;47850;50.274;18.908;2022-09-17T11:00:21;97173.62;;;12.56;71.34
61898;BME280;47850;50.274;18.908;2022-09-17T11:08:33;97174.45;;;12.37;72.06
61898;BME280;47850;50.274;18.908;2022-09-17T11:11:10;97174.05;;;12.33;72.61
61898;BME280;47850;50.274;18.908;2022-09-17T11:16:46;97162.35;;;12.41;73.19
61898;BME280;47850;50.274;18.908;2022-09-17T11:19:36;97171.02;;;12.41;73.08
61898;BME280;47850;50.274;18.908;2022-09-17T11:22:31;97186.88;;;12.41;73.26
61898;BME280;47850;50.274;18.908;2022-09-17T11:28:15;97197.41;;;12.37;73.94
61898;BME280;47850;50.274;18.908;2022-09-17T11:31:07;97187.41;;;12.37;74.10
61898;BME280;47850;50.274;18.908;2022-09-17T11:36:12;97188.05;;;12.28;75.31
61898;BME280;47850;50.274;18.908;2022-09-17T11:38:48;97191.89;;;12.28;76.36
61898;BME280;47850;50.274;18.908;2022-09-17T11:41:25;97195.58;;;12.25;76.43
61898;BME280;47850;50.274;18.908;2022-09-17T11:44:16;97192.02;;;12.23;76.97
61898;BME280;47850;50.274;18.908;2022-09-17T11:49:57;97178.19;;;12.37;76.70
61898;BME280;47850;50.274;18.908;2022-09-17T11:52:37;97176.69;;;12.57;75.92
61898;BME280;47850;50.274;18.908;2022-09-17T11:55:17;97173.36;;;12.70;75.87
61898;BME280;47850;50.274;18.908;2022-09-17T11:57:48;97166.57;;;12.81;75.71
61898;BME280;47850;50.274;18.908;2022-09-17T12:00:19;97163.92;;;12.93;75.43
61898;BME280;47850;50.274;18.908;2022-09-17T12:08:15;97155.92;;;13.16;73.71
61898;BME280;47850;50.274;18.908;2022-09-17T12:10:50;97152.22;;;13.21;73.85
61898;BME280;47850;50.274;18.908;2022-09-17T12:13:35;97151.38;;;13.31;72.77
61898;BME280;47850;50.274;18.908;2022-09-17T12:16:24;97149.06;;;13.44;72.93
61898;BME280;47850;50.274;18.908;2022-09-17T12:21:44;97145.25;;;13.96;70.75
61898;BME280;47850;50.274;18.908;2022-09-17T12:24:30;97138.71;;;14.14;69.16
61898;BME280;47850;50.274;18.908;2022-09-17T12:27:23;97133.34;;;14.21;69.36
61898;BME280;47850;50.274;18.908;2022-09-17T12:30:12;97121.18;;;14.37;68.89
61898;BME280;47850;50.274;18.908;2022-09-17T12:38:36;97113.84;;;14.84;67.32
61898;BME280;47850;50.274;18.908;2022-09-17T12:41:18;97108.30;;;14.93;66.46
61898;BME280;47850;50.274;18.908;2022-09-17T12:49:46;97097.00;;;14.85;65.69
61898;BME280;47850;50.274;18.908;2022-09-17T12:55:33;97102.23;;;14.78;64.89
61898;BME280;47850;50.274;18.908;2022-09-17T12:58:33;97103.98;;;14.73;65.29
61898;BME280;47850;50.274;18.908;2022-09-17T13:04:01;97106.58;;;14.86;64.87
61898;BME280;47850;50.274;18.908;2022-09-17T13:15:19;97082.02;;;16.13;61.90
61898;BME280;47850;50.274;18.908;2022-09-17T13:20:36;97075.70;;;16.19;60.41
61898;BME280;47850;50.274;18.908;2022-09-17T13:23:04;97080.18;;;16.19;60.29
61898;BME280;47850;50.274;18.908;2022-09-17T13:25:30;97082.00;;;16.09;60.77
61898;BME280;47850;50.274;18.908;2022-09-17T13:28:06;97076.94;;;16.15;61.18
61898;BME280;47850;50.274;18.908;2022-09-17T13:30:58;97079.09;;;16.34;60.76
61898;BME280;47850;50.274;18.908;2022-09-17T13:33:50;97078.58;;;16.42;58.41
61898;BME280;47850;50.274;18.908;2022-09-17T13:39:01;97088.39;;;16.55;57.63
61898;BME280;47850;50.274;18.908;2022-09-17T13:41:28;97089.88;;;17.15;56.24
61898;BME280;47850;50.274;18.908;2022-09-17T13:43:56;97094.27;;;18.39;54.01
61898;BME280;47850;50.274;18.908;2022-09-17T13:46:24;97098.49;;;19.08;52.34
61898;BME280;47850;50.274;18.908;2022-09-17T13:48:54;97098.13;;;19.17;50.87
61898;BME280;47850;50.274;18.908;2022-09-17T13:54:04;97109.69;;;18.64;53.14
61898;BME280;47850;50.274;18.908;2022-09-17T13:56:46;97113.30;;;18.39;52.53
61898;BME280;47850;50.274;18.908;2022-09-17T13:59:19;97096.08;;;18.00;52.92
61898;BME280;47850;50.274;18.908;2022-09-17T14:02:02;97073.05;;;17.67;53.11
61898;BME280;47850;50.274;18.908;2022-09-17T14:09:50;97037.77;;;20.44;49.13
61898;BME280;47850;50.274;18.908;2022-09-17T14:21:13;97004.14;;;20.76;45.89
61898;BME280;47850;50.274;18.908;2022-09-17T14:23:45;97017.12;;;19.71;47.69
61898;BME280;47850;50.274;18.908;2022-09-17T14:26:34;97024.65;;;18.81;49.24
61898;BME280;47850;50.274;18.908;2022-09-17T14:32:12;97048.69;;;16.93;53.49
61898;BME280;47850;50.274;18.908;2022-09-17T14:34:40;97056.88;;;16.40;55.09
61898;BME280;47850;50.274;18.908;2022-09-17T14:37:11;97059.22;;;15.89;56.63
61898;BME280;47850;50.274;18.908;2022-09-17T14:39:39;97063.80;;;15.45;57.92
61898;BME280;47850;50.274;18.908;2022-09-17T14:42:21;97078.10;;;15.15;59.49
61898;BME280;47850;50.274;18.908;2022-09-17T14:44:56;97088.80;;;14.82;60.76
61898;BME280;47850;50.274;18.908;2022-09-17T14:47:24;97087.31;;;14.51;61.55
61898;BME280;47850;50.274;18.908;2022-09-17T14:49:52;97077.81;;;14.22;62.50
61898;BME280;47850;50.274;18.908;2022-09-17T14:57:36;97068.98;;;13.80;65.23
61898;BME280;47850;50.274;18.908;2022-09-17T15:00:03;97066.06;;;13.69;65.50
61898;BME280;47850;50.274;18.908;2022-09-17T15:02:41;97061.75;;;13.63;66.22
61898;BME280;47850;50.274;18.908;2022-09-17T15:05:17;97054.91;;;13.57;66.32
61898;BME280;47850;50.274;18.908;2022-09-17T15:07:44;97048.54;;;13.50;66.68
61898;BME280;47850;50.274;18.908;2022-09-17T15:10:28;97045.70;;;13.44;67.32
61898;BME280;47850;50.274;18.908;2022-09-17T15:12:53;97039.85;;;13.37;68.11
61898;BME280;47850;50.274;18.908;2022-09-17T15:15:22;97036.96;;;13.29;68.80
61898;BME280;47850;50.274;18.908;2022-09-17T15:17:50;97034.35;;;13.21;69.52
61898;BME280;47850;50.274;18.908;2022-09-17T15:20:27;97031.00;;;13.18;69.86
61898;BME280;47850;50.274;18.908;2022-09-17T15:25:43;97047.77;;;13.11;70.56
61898;BME280;47850;50.274;18.908;2022-09-17T15:28:38;97047.73;;;13.05;70.96
61898;BME280;47850;50.274;18.908;2022-09-17T15:31:05;97052.73;;;13.00;71.64
61898;BME280;47850;50.274;18.908;2022-09-17T15:33:38;97061.61;;;12.95;72.30
61898;BME280;47850;50.274;18.908;2022-09-17T15:36:23;97067.77;;;12.89;72.73
61898;BME280;47850;50.274;18.908;2022-09-17T15:38:51;97070.48;;;12.80;73.37
61898;BME280;47850;50.274;18.908;2022-09-17T15:41:33;97066.48;;;12.74;73.89
61898;BME280;47850;50.274;18.908;2022-09-17T15:44:24;97063.14;;;12.72;74.72
61898;BME280;47850;50.274;18.908;2022-09-17T15:46:52;97063.61;;;12.68;74.59
61898;BME280;47850;50.274;18.908;2022-09-17T15:49:31;97066.33;;;12.63;74.88
61898;BME280;47850;50.274;18.908;2022-09-17T15:52:34;97071.42;;;12.59;75.48